createdAt,value
2019-02-22T00:00:37.433Z,1.70
2019-02-22T00:03:08.268Z,1.60
2019-02-22T00:05:37.204Z,1.60
2019-02-22T00:08:07.074Z,1.60
2019-02-22T00:10:37.558Z,1.60
2019-02-22T00:13:06.759Z,1.60
2019-02-22T00:15:37.633Z,1.70
2019-02-22T00:18:06.990Z,1.80
2019-02-22T00:20:35.733Z,1.90
2019-02-22T00:23:04.669Z,1.80
2019-02-22T00:25:33.819Z,1.80
2019-02-22T00:28:04.607Z,1.80
2019-02-22T00:30:33.991Z,1.80
2019-02-22T00:33:03.129Z,1.80
2019-02-22T00:35:32.961Z,1.70
2019-02-22T00:38:02.065Z,1.70
2019-02-22T00:40:32.874Z,1.60
2019-02-22T00:43:02.202Z,1.60
2019-02-22T00:45:31.806Z,1.80
2019-02-22T00:48:02.223Z,1.90
2019-02-22T00:50:32.394Z,1.70
2019-02-22T00:53:01.416Z,1.60
2019-02-22T00:56:05.846Z,1.70
2019-02-22T00:58:34.901Z,1.70
2019-02-22T01:01:05.289Z,1.70
2019-02-22T01:03:33.931Z,1.70
2019-02-22T01:06:02.931Z,1.80
2019-02-22T01:08:31.944Z,1.80
2019-02-22T01:11:02.081Z,1.90
2019-02-22T01:13:30.744Z,1.90
2019-02-22T01:16:00.277Z,2.00
2019-02-22T01:18:30.847Z,1.70
2019-02-22T01:21:01.255Z,1.40
2019-02-22T01:23:32.400Z,1.30
2019-02-22T01:26:01.741Z,1.30
2019-02-22T01:28:31.099Z,1.40
2019-02-22T01:31:00.165Z,1.50
2019-02-22T01:33:29.055Z,1.50
2019-02-22T01:35:58.341Z,1.40
2019-02-22T01:38:27.858Z,1.40
2019-02-22T01:40:56.680Z,1.30
2019-02-22T01:43:26.393Z,1.30
2019-02-22T01:45:56.766Z,1.30
2019-02-22T01:48:25.237Z,1.40
2019-02-22T01:50:53.644Z,1.10
2019-02-22T01:53:23.395Z,0.90
2019-02-22T01:55:52.627Z,0.90
2019-02-22T01:58:21.862Z,0.90
2019-02-22T02:00:51.280Z,0.80
2019-02-22T02:03:19.884Z,0.90
2019-02-22T02:05:48.860Z,1.40
2019-02-22T02:08:17.936Z,2.80
2019-02-22T02:10:53.917Z,3.40
2019-02-22T02:13:16.954Z,3.70
2019-02-22T02:15:45.512Z,3.80
2019-02-22T02:18:14.821Z,4.00
2019-02-22T02:20:54.050Z,4.20
2019-02-22T02:23:24.036Z,4.40
2019-02-22T02:25:52.839Z,4.50
2019-02-22T02:28:21.519Z,3.20
2019-02-22T02:30:50.861Z,2.00
2019-02-22T02:33:19.493Z,1.40
2019-02-22T02:35:48.001Z,1.00
2019-02-22T02:38:16.638Z,1.00
2019-02-22T02:40:46.440Z,1.00
2019-02-22T02:43:16.842Z,1.20
2019-02-22T02:45:47.320Z,2.50
2019-02-22T02:48:18.517Z,3.40
2019-02-22T02:50:48.860Z,3.80
2019-02-22T02:53:19.651Z,3.80
2019-02-22T02:55:49.022Z,2.70
2019-02-22T02:58:20.005Z,2.10
2019-02-22T03:00:50.811Z,2.00
2019-02-22T03:03:21.450Z,1.80
2019-02-22T03:06:15.353Z,1.70
2019-02-22T03:08:45.203Z,1.70
2019-02-22T03:11:20.656Z,1.50
2019-02-22T03:13:45.462Z,1.20
2019-02-22T03:16:15.862Z,1.00
2019-02-22T03:18:45.862Z,1.00
2019-02-22T03:21:17.088Z,0.90
2019-02-22T03:23:47.115Z,1.30
2019-02-22T03:26:16.658Z,2.20
2019-02-22T03:28:46.494Z,2.70
2019-02-22T03:31:18.178Z,2.70
2019-02-22T03:33:47.997Z,3.50
2019-02-22T03:36:18.318Z,4.10
2019-02-22T03:38:47.494Z,4.40
2019-02-22T03:41:19.673Z,4.40
2019-02-22T03:43:50.900Z,3.40
2019-02-22T03:46:21.954Z,2.80
2019-02-22T03:48:50.926Z,2.40
2019-02-22T03:51:20.453Z,2.20
2019-02-22T03:53:57.589Z,2.10
2019-02-22T03:56:29.203Z,2.20
2019-02-22T03:58:58.276Z,3.40
2019-02-22T04:01:28.181Z,3.70
2019-02-22T04:03:57.849Z,3.00
2019-02-22T04:06:27.482Z,2.60
2019-02-22T04:08:57.654Z,2.30
2019-02-22T04:11:29.679Z,2.80
2019-02-22T04:14:00.267Z,2.90
2019-02-22T04:16:30.662Z,3.20
2019-02-22T04:18:59.646Z,4.00
2019-02-22T04:21:29.023Z,4.50
2019-02-22T04:23:58.287Z,4.80
2019-02-22T04:26:28.053Z,4.90
2019-02-22T04:28:59.511Z,4.70
2019-02-22T04:31:28.911Z,3.00
2019-02-22T04:33:59.251Z,2.20
2019-02-22T04:36:29.135Z,2.00
2019-02-22T04:39:02.379Z,2.20
2019-02-22T04:41:33.546Z,2.40
2019-02-22T04:44:04.147Z,2.40
2019-02-22T04:46:33.548Z,2.40
2019-02-22T04:49:03.359Z,2.80
2019-02-22T04:51:33.909Z,3.20
2019-02-22T04:54:03.139Z,3.70
2019-02-22T04:56:31.709Z,3.90
2019-02-22T04:59:01.415Z,3.70
2019-02-22T05:01:30.644Z,2.90
2019-02-22T05:04:00.626Z,2.70
2019-02-22T05:06:30.041Z,3.40
2019-02-22T05:08:59.885Z,4.30
2019-02-22T05:11:29.554Z,4.70
2019-02-22T05:14:00.069Z,4.90
2019-02-22T05:16:30.311Z,4.50
2019-02-22T05:18:59.722Z,3.30
2019-02-22T05:21:30.814Z,2.70
2019-02-22T05:24:01.181Z,2.30
2019-02-22T05:26:32.006Z,2.20
2019-02-22T05:29:02.271Z,2.10
2019-02-22T05:31:31.674Z,2.00
2019-02-22T05:34:02.117Z,2.10
2019-02-22T05:36:33.061Z,2.30
2019-02-22T05:39:04.125Z,2.60
2019-02-22T05:41:34.103Z,2.90
2019-02-22T05:44:04.246Z,3.30
2019-02-22T05:46:33.670Z,3.30
2019-02-22T05:49:02.926Z,3.40
2019-02-22T05:51:33.891Z,3.30
2019-02-22T05:54:03.350Z,3.30
2019-02-22T05:56:33.734Z,3.50
2019-02-22T05:59:03.305Z,3.60
2019-02-22T06:01:32.881Z,3.60
2019-02-22T06:04:02.194Z,3.80
2019-02-22T06:06:32.086Z,3.50
2019-02-22T06:09:04.345Z,3.60
2019-02-22T06:11:37.366Z,3.80
2019-02-22T06:14:07.271Z,4.00
2019-02-22T06:16:45.106Z,4.10
2019-02-22T06:19:16.700Z,4.30
2019-02-22T06:21:48.731Z,4.50
2019-02-22T06:24:18.884Z,4.60
2019-02-22T06:26:48.434Z,4.80
2019-02-22T06:29:19.595Z,5.00
2019-02-22T06:31:50.984Z,5.20
2019-02-22T06:34:21.343Z,5.30
2019-02-22T06:37:01.687Z,5.40
2019-02-22T06:39:26.119Z,5.50
2019-02-22T06:41:56.090Z,5.60
2019-02-22T06:44:26.065Z,5.70
2019-02-22T06:46:55.430Z,5.70
2019-02-22T06:49:25.896Z,5.50
2019-02-22T06:51:55.674Z,5.10
2019-02-22T06:54:24.661Z,5.10
2019-02-22T06:56:55.379Z,5.00
2019-02-22T06:59:24.826Z,4.90
2019-02-22T07:01:55.056Z,4.90
2019-02-22T07:04:24.052Z,4.90
2019-02-22T07:06:53.727Z,5.00
2019-02-22T07:09:24.367Z,5.10
2019-02-22T07:12:04.731Z,5.30
2019-02-22T07:14:34.423Z,5.40
2019-02-22T07:17:04.809Z,5.50
2019-02-22T07:19:36.018Z,5.60
2019-02-22T07:22:06.642Z,5.80
2019-02-22T07:24:36.160Z,6.10
2019-02-22T07:27:06.297Z,6.30
2019-02-22T07:29:35.079Z,6.60
2019-02-22T07:32:06.125Z,6.80
2019-02-22T07:34:35.514Z,7.00
2019-02-22T07:37:05.244Z,7.20
2019-02-22T07:39:35.859Z,7.40
2019-02-22T07:42:04.848Z,7.60
2019-02-22T07:44:34.266Z,7.80
2019-02-22T07:47:04.741Z,8.00
2019-02-22T07:49:34.527Z,8.20
2019-02-22T07:52:04.964Z,8.50
2019-02-22T07:54:34.864Z,8.80
2019-02-22T07:57:05.154Z,9.10
2019-02-22T07:59:35.555Z,9.40
2019-02-22T08:02:07.094Z,9.80
2019-02-22T08:04:37.259Z,9.90
2019-02-22T08:07:06.206Z,10.10
2019-02-22T08:09:35.606Z,10.40
2019-02-22T08:12:05.484Z,10.50
2019-02-22T08:14:36.449Z,10.70
2019-02-22T08:17:06.405Z,11.00
2019-02-22T08:19:36.541Z,11.10
2019-02-22T08:22:06.965Z,11.10
2019-02-22T08:24:37.776Z,11.00
2019-02-22T08:27:09.349Z,11.10
2019-02-22T08:29:39.740Z,11.10
2019-02-22T08:32:09.814Z,11.20
2019-02-22T08:34:40.609Z,11.60
2019-02-22T08:37:10.406Z,11.80
2019-02-22T08:39:39.783Z,12.20
2019-02-22T08:42:09.496Z,12.60
2019-02-22T08:44:38.704Z,12.30
2019-02-22T08:47:09.294Z,12.40
2019-02-22T08:49:39.224Z,12.40
2019-02-22T08:52:09.592Z,12.40
2019-02-22T08:54:47.096Z,12.60
2019-02-22T08:57:14.261Z,13.00
2019-02-22T08:59:43.919Z,13.10
2019-02-22T09:02:13.697Z,13.60
2019-02-22T09:04:43.969Z,13.40
2019-02-22T09:07:14.344Z,13.40
2019-02-22T09:09:44.386Z,13.30
2019-02-22T09:12:14.644Z,13.40
2019-02-22T09:14:45.044Z,13.60
2019-02-22T09:17:14.687Z,14.10
2019-02-22T09:19:44.876Z,14.40
2019-02-22T09:22:22.294Z,14.70
2019-02-22T09:24:45.729Z,14.60
2019-02-22T09:27:15.429Z,14.60
2019-02-22T09:29:44.431Z,14.80
2019-02-22T09:32:13.206Z,14.50
2019-02-22T09:34:43.173Z,14.70
2019-02-22T09:37:12.777Z,14.70
2019-02-22T09:39:42.699Z,14.70
2019-02-22T09:42:12.388Z,14.90
2019-02-22T09:44:41.631Z,14.70
2019-02-22T09:47:11.722Z,15.00
2019-02-22T09:49:40.586Z,15.30
2019-02-22T09:52:13.134Z,15.30
2019-02-22T09:54:43.350Z,15.50
2019-02-22T09:57:14.066Z,15.70
2019-02-22T09:59:43.306Z,15.50
2019-02-22T10:02:12.676Z,15.60
2019-02-22T10:04:42.290Z,15.70
2019-02-22T10:07:12.599Z,15.80
2019-02-22T10:09:43.134Z,16.00
2019-02-22T10:12:13.216Z,15.60
2019-02-22T10:14:43.658Z,15.50
2019-02-22T10:17:14.084Z,15.40
2019-02-22T10:19:44.521Z,15.60
2019-02-22T10:22:14.908Z,16.20
2019-02-22T10:24:45.526Z,16.30
2019-02-22T10:27:16.741Z,16.30
2019-02-22T10:29:46.050Z,16.10
2019-02-22T10:32:18.252Z,16.70
2019-02-22T10:34:49.289Z,16.90
2019-02-22T10:37:18.686Z,17.10
2019-02-22T10:39:50.234Z,17.00
2019-02-22T10:42:22.385Z,16.90
2019-02-22T10:44:52.890Z,17.20
2019-02-22T10:47:23.222Z,17.40
2019-02-22T10:49:55.707Z,18.30
2019-02-22T10:52:26.116Z,18.00
2019-02-22T10:54:56.566Z,18.10
2019-02-22T10:57:27.314Z,18.00
2019-02-22T10:59:58.057Z,17.80
2019-02-22T11:02:31.216Z,17.60
2019-02-22T11:05:02.894Z,17.40
2019-02-22T11:07:33.251Z,17.60
2019-02-22T11:10:05.764Z,17.90
2019-02-22T11:12:39.246Z,17.90
2019-02-22T11:15:11.612Z,18.10
2019-02-22T11:17:41.745Z,17.90
2019-02-22T11:20:12.967Z,17.80
2019-02-22T11:22:43.807Z,17.90
2019-02-22T11:25:14.000Z,18.20
2019-02-22T11:27:46.216Z,18.30
2019-02-22T11:30:16.536Z,17.90
2019-02-22T11:32:46.991Z,18.00
2019-02-22T11:35:16.827Z,17.70
2019-02-22T11:37:48.285Z,17.90
2019-02-22T11:40:20.107Z,18.50
2019-02-22T11:42:50.146Z,18.20
2019-02-22T11:45:19.189Z,17.70
2019-02-22T11:47:49.434Z,18.20
2019-02-22T11:50:19.708Z,18.40
2019-02-22T11:52:49.024Z,18.10
2019-02-22T11:55:19.942Z,18.00
2019-02-22T11:57:51.487Z,17.90
2019-02-22T12:00:21.788Z,18.50
2019-02-22T12:02:50.867Z,18.50
2019-02-22T12:05:20.348Z,18.10
2019-02-22T12:07:50.731Z,18.10
2019-02-22T12:10:21.597Z,18.40
2019-02-22T12:12:52.300Z,18.80
2019-02-22T12:15:22.041Z,19.10
2019-02-22T12:17:51.300Z,18.80
2019-02-22T12:20:21.350Z,18.60
2019-02-22T12:22:51.213Z,18.90
2019-02-22T12:25:21.011Z,18.80
2019-02-22T12:27:50.652Z,18.90
2019-02-22T12:30:20.431Z,18.80
2019-02-22T12:32:51.293Z,18.80
2019-02-22T12:35:20.447Z,18.50
2019-02-22T12:37:49.589Z,18.60
2019-02-22T12:40:18.834Z,18.70
2019-02-22T12:42:49.010Z,18.80
2019-02-22T12:45:18.596Z,18.80
2019-02-22T12:47:47.578Z,19.00
2019-02-22T12:50:17.132Z,19.10
2019-02-22T12:52:46.101Z,18.90
2019-02-22T12:55:17.106Z,19.40
2019-02-22T12:57:48.266Z,19.20
2019-02-22T13:00:21.913Z,19.70
2019-02-22T13:03:01.491Z,19.50
2019-02-22T13:05:24.855Z,19.10
2019-02-22T13:07:56.165Z,19.10
2019-02-22T13:10:26.410Z,19.30
2019-02-22T13:12:56.224Z,19.20
2019-02-22T13:15:37.869Z,19.50
2019-02-22T13:18:10.523Z,19.50
2019-02-22T13:20:41.166Z,19.00
2019-02-22T13:23:10.490Z,18.60
2019-02-22T13:25:40.562Z,18.90
2019-02-22T13:28:10.973Z,18.80
2019-02-22T13:30:40.251Z,18.80
2019-02-22T13:33:10.277Z,19.00
2019-02-22T13:35:40.216Z,19.00
2019-02-22T13:38:11.699Z,18.90
2019-02-22T13:40:43.102Z,18.50
2019-02-22T13:43:13.518Z,18.30
2019-02-22T13:45:43.156Z,18.40
2019-02-22T13:48:13.559Z,18.60
2019-02-22T13:50:43.521Z,18.60
2019-02-22T13:53:14.407Z,18.30
2019-02-22T13:55:46.009Z,18.40
2019-02-22T13:58:15.583Z,18.30
2019-02-22T14:00:45.366Z,18.70
2019-02-22T14:03:16.219Z,18.60
2019-02-22T14:05:46.050Z,18.80
2019-02-22T14:08:16.197Z,19.40
2019-02-22T14:10:45.995Z,19.30
2019-02-22T14:13:16.038Z,19.10
2019-02-22T14:15:46.672Z,19.30
2019-02-22T14:18:15.640Z,19.40
2019-02-22T14:20:46.780Z,19.70
2019-02-22T14:23:16.414Z,19.50
2019-02-22T14:25:47.166Z,19.40
2019-02-22T14:28:18.195Z,19.20
2019-02-22T14:30:50.852Z,19.40
2019-02-22T14:33:20.713Z,19.50
2019-02-22T14:35:51.284Z,19.20
2019-02-22T14:38:20.450Z,19.30
2019-02-22T14:40:49.220Z,19.50
2019-02-22T14:43:18.722Z,19.20
2019-02-22T14:45:52.214Z,18.80
2019-02-22T14:48:21.176Z,18.60
2019-02-22T14:50:50.794Z,18.90
2019-02-22T14:53:21.204Z,18.70
2019-02-22T14:55:52.011Z,18.40
2019-02-22T14:58:22.859Z,18.60
2019-02-22T15:00:51.735Z,18.50
2019-02-22T15:03:22.576Z,18.50
2019-02-22T15:05:56.207Z,18.40
2019-02-22T15:08:27.336Z,18.60
2019-02-22T15:10:58.332Z,18.50
2019-02-22T15:13:28.249Z,18.40
2019-02-22T15:16:30.084Z,18.30
2019-02-22T15:19:00.171Z,18.40
2019-02-22T15:21:34.355Z,18.40
2019-02-22T15:24:02.531Z,18.50
2019-02-22T15:26:31.544Z,18.30
2019-02-22T15:29:02.314Z,18.20
2019-02-22T15:31:36.053Z,17.70
2019-02-22T15:34:08.329Z,17.00
2019-02-22T15:36:37.685Z,16.40
2019-02-22T15:39:07.139Z,15.80
2019-02-22T15:41:36.974Z,15.50
2019-02-22T15:44:06.570Z,15.20
2019-02-22T15:46:37.196Z,15.10
2019-02-22T15:49:06.432Z,14.90
2019-02-22T15:51:39.672Z,14.80
2019-02-22T15:54:09.968Z,14.80
2019-02-22T15:56:39.667Z,14.60
2019-02-22T15:59:10.853Z,14.50
2019-02-22T16:01:39.524Z,14.40
2019-02-22T16:04:45.185Z,14.30
2019-02-22T16:07:15.396Z,14.20
2019-02-22T16:09:45.946Z,14.00
2019-02-22T16:12:19.564Z,13.90
2019-02-22T16:14:48.988Z,13.80
2019-02-22T16:17:18.979Z,13.70
2019-02-22T16:19:51.479Z,13.60
2019-02-22T16:22:22.258Z,13.60
2019-02-22T16:24:52.774Z,13.50
2019-02-22T16:27:23.374Z,13.40
2019-02-22T16:29:53.707Z,13.30
2019-02-22T16:32:25.150Z,13.10
2019-02-22T16:34:55.488Z,13.00
2019-02-22T16:37:25.976Z,12.90
2019-02-22T16:39:56.672Z,12.80
2019-02-22T16:42:28.331Z,12.70
2019-02-22T16:44:59.079Z,12.70
2019-02-22T16:47:39.595Z,12.60
2019-02-22T16:50:01.617Z,12.50
2019-02-22T16:52:33.670Z,12.50
2019-02-22T16:55:06.286Z,12.50
2019-02-22T16:57:38.796Z,12.40
2019-02-22T17:00:10.888Z,12.40
2019-02-22T17:02:41.817Z,12.60
2019-02-22T17:05:14.941Z,12.60
2019-02-22T17:07:47.344Z,12.50
2019-02-22T17:10:20.480Z,12.50
2019-02-22T17:12:51.307Z,12.40
2019-02-22T17:15:22.791Z,12.40
2019-02-22T17:17:56.469Z,12.40
2019-02-22T17:20:26.537Z,12.30
2019-02-22T17:22:59.182Z,12.40
2019-02-22T17:25:35.527Z,12.30
2019-02-22T17:28:07.359Z,12.20
2019-02-22T17:30:37.795Z,12.10
2019-02-22T17:33:09.619Z,11.90
2019-02-22T17:35:39.903Z,11.80
2019-02-22T17:38:11.773Z,11.70
2019-02-22T17:40:44.604Z,11.60
2019-02-22T17:43:17.487Z,11.50
2019-02-22T17:45:48.091Z,11.20
2019-02-22T17:48:20.927Z,11.10
2019-02-22T17:50:52.746Z,11.10
2019-02-22T17:53:24.803Z,11.00
2019-02-22T17:55:58.456Z,11.00
2019-02-22T17:58:29.215Z,11.00
2019-02-22T18:01:01.116Z,11.00
2019-02-22T18:03:32.416Z,11.50
2019-02-22T18:06:02.284Z,11.60
2019-02-22T18:08:32.579Z,11.70
2019-02-22T18:11:01.813Z,11.70
2019-02-22T18:13:31.446Z,11.80
2019-02-22T18:16:01.458Z,11.80
2019-02-22T18:18:32.239Z,11.80
2019-02-22T18:21:04.065Z,11.70
2019-02-22T18:23:34.058Z,11.70
2019-02-22T18:26:05.261Z,11.70
2019-02-22T18:28:36.887Z,11.60
2019-02-22T18:31:07.278Z,11.50
2019-02-22T18:33:39.740Z,10.70
2019-02-22T18:36:10.077Z,10.70
2019-02-22T18:38:41.160Z,11.00
2019-02-22T18:41:10.617Z,11.20
2019-02-22T18:43:41.122Z,11.30
2019-02-22T18:46:11.033Z,11.20
2019-02-22T18:48:43.712Z,11.20
2019-02-22T18:51:14.881Z,11.20
2019-02-22T18:53:45.856Z,11.10
2019-02-22T18:56:15.217Z,11.10
2019-02-22T18:58:44.387Z,11.10
2019-02-22T19:01:15.595Z,11.00
2019-02-22T19:03:44.919Z,11.00
2019-02-22T19:06:16.654Z,10.90
2019-02-22T19:08:46.851Z,9.60
2019-02-22T19:11:16.987Z,9.10
2019-02-22T19:13:46.079Z,9.30
2019-02-22T19:16:16.124Z,9.20
2019-02-22T19:18:46.019Z,9.10
2019-02-22T19:21:17.974Z,8.90
2019-02-22T19:23:47.539Z,8.40
2019-02-22T19:26:17.357Z,8.00
2019-02-22T19:28:48.047Z,7.90
2019-02-22T19:31:17.858Z,7.80
2019-02-22T19:33:49.931Z,7.80
2019-02-22T19:36:20.269Z,8.00
2019-02-22T19:38:50.902Z,8.10
2019-02-22T19:41:25.028Z,7.80
2019-02-22T19:43:55.814Z,7.70
2019-02-22T19:46:30.780Z,7.90
2019-02-22T19:49:07.254Z,8.20
2019-02-22T19:51:38.439Z,8.40
2019-02-22T19:54:08.926Z,8.80
2019-02-22T19:56:40.085Z,8.90
2019-02-22T19:59:14.721Z,9.20
2019-02-22T20:01:45.580Z,9.40
2019-02-22T20:04:14.624Z,9.60
2019-02-22T20:06:45.741Z,9.60
2019-02-22T20:09:15.974Z,9.60
2019-02-22T20:11:48.688Z,9.50
2019-02-22T20:14:19.498Z,8.80
2019-02-22T20:16:54.146Z,8.00
2019-02-22T20:19:24.063Z,7.60
2019-02-22T20:21:56.269Z,7.30
2019-02-22T20:24:26.755Z,7.00
2019-02-22T20:26:58.594Z,6.70
2019-02-22T20:29:28.119Z,6.60
2019-02-22T20:31:57.522Z,6.50
2019-02-22T20:34:28.662Z,6.50
2019-02-22T20:36:58.697Z,6.40
2019-02-22T20:39:29.976Z,6.40
2019-02-22T20:42:00.233Z,6.40
2019-02-22T20:44:30.078Z,6.40
2019-02-22T20:47:01.598Z,6.40
2019-02-22T20:49:34.731Z,6.40
2019-02-22T20:52:09.481Z,6.40
2019-02-22T20:54:39.774Z,6.30
2019-02-22T20:57:11.827Z,6.20
2019-02-22T20:59:40.905Z,6.20
2019-02-22T21:02:13.376Z,6.10
2019-02-22T21:04:42.519Z,6.00
2019-02-22T21:07:13.194Z,6.00
2019-02-22T21:09:43.064Z,6.00
2019-02-22T21:12:14.161Z,6.00
2019-02-22T21:14:44.520Z,6.00
2019-02-22T21:17:16.412Z,5.90
2019-02-22T21:19:48.655Z,5.80
2019-02-22T21:22:19.219Z,5.70
2019-02-22T21:24:50.036Z,5.80
2019-02-22T21:27:19.673Z,5.90
2019-02-22T21:29:49.257Z,5.80
2019-02-22T21:32:21.726Z,5.60
2019-02-22T21:34:51.513Z,5.40
2019-02-22T21:37:20.944Z,5.30
2019-02-22T21:39:50.783Z,5.70
2019-02-22T21:42:24.138Z,5.80
2019-02-22T21:44:54.604Z,5.60
2019-02-22T21:47:28.641Z,5.30
2019-02-22T21:49:59.945Z,5.10
2019-02-22T21:52:30.707Z,4.90
2019-02-22T21:55:00.397Z,4.90
2019-02-22T21:57:30.978Z,5.60
2019-02-22T22:00:01.584Z,6.50
2019-02-22T22:02:34.272Z,7.40
2019-02-22T22:05:08.819Z,7.90
2019-02-22T22:07:40.627Z,8.20
2019-02-22T22:10:12.139Z,8.20
2019-02-22T22:12:42.794Z,8.10
2019-02-22T22:15:14.385Z,8.00
2019-02-22T22:17:45.952Z,8.10
2019-02-22T22:20:15.942Z,8.00
2019-02-22T22:22:46.354Z,8.00
2019-02-22T22:25:17.471Z,8.00
2019-02-22T22:27:49.223Z,8.00
2019-02-22T22:30:19.131Z,8.00
2019-02-22T22:32:52.519Z,8.00
2019-02-22T22:35:21.201Z,7.20
2019-02-22T22:37:51.656Z,7.30
2019-02-22T22:40:23.288Z,7.70
2019-02-22T22:42:52.407Z,7.90
2019-02-22T22:45:22.702Z,8.00
2019-02-22T22:47:52.544Z,8.00
2019-02-22T22:50:22.586Z,8.10
2019-02-22T22:52:51.620Z,8.00
2019-02-22T22:55:21.935Z,8.00
2019-02-22T22:57:50.771Z,8.10
2019-02-22T23:01:01.655Z,8.00
2019-02-22T23:03:32.099Z,7.90
2019-02-22T23:06:02.645Z,8.00
2019-02-22T23:08:32.001Z,8.00
2019-02-22T23:11:01.266Z,7.90
2019-02-22T23:13:32.360Z,8.00
2019-02-22T23:16:02.906Z,8.20
2019-02-22T23:18:33.800Z,8.40
2019-02-22T23:21:03.843Z,8.70
2019-02-22T23:23:33.079Z,9.00
2019-02-22T23:26:03.451Z,9.20
2019-02-22T23:28:33.976Z,9.40
2019-02-22T23:31:03.429Z,9.40
2019-02-22T23:33:34.695Z,9.30
2019-02-22T23:36:03.868Z,9.40
2019-02-22T23:38:33.113Z,9.50
2019-02-22T23:41:04.126Z,9.60
2019-02-22T23:43:34.628Z,9.60
2019-02-22T23:46:04.246Z,9.50
2019-02-22T23:48:33.666Z,9.50
2019-02-22T23:51:03.787Z,9.60
2019-02-22T23:53:33.514Z,9.60
2019-02-22T23:56:03.294Z,9.60
2019-02-22T23:58:32.996Z,9.60
